Time;durP1;ratioP1;P1;durP2;ratioP2;P2;SDS_P1;SDS_P2;PMS_P1;PMS_P2;Temp;Humidity;BMP_temperature;BMP_pressure;BME280_temperature;BME280_humidity;BME280_pressure;Samples;Min_cycle;Max_cycle;Signal;HPM_P1;HPM_P2
2020/12/03 00:00:31;;;;;;;10.95;6.50;;;;;;;5.34;50.77;100593.66;5047952;28;20033;-65
2020/12/03 00:03:01;;;;;;;9.85;5.55;;;;;;;5.31;51.06;100596.59;5046164;28;20116;-66
2020/12/03 00:05:34;;;;;;;11.98;6.60;;;;;;;5.29;50.77;100591.25;5016919;28;20049;-65
2020/12/03 00:08:06;;;;;;;10.90;5.73;;;;;;;5.28;50.96;100584.09;5040579;28;20496;-65
2020/12/03 00:10:36;;;;;;;10.65;6.05;;;;;;;5.29;51.06;100576.81;5036947;28;20496;-65
2020/12/03 00:13:26;;;;;;;10.70;6.15;;;;;;;5.30;51.16;100575.84;5041711;28;20050;-65
2020/12/03 00:15:56;;;;;;;12.05;6.85;;;;;;;5.30;50.91;100571.31;5037505;28;20045;-65
2020/12/03 00:18:24;;;;;;;10.40;6.32;;;;;;;5.30;50.98;100562.28;5043752;28;20275;-65
2020/12/03 00:20:54;;;;;;;9.77;5.82;;;;;;;5.29;51.23;100565.97;5047364;28;20060;-65
2020/12/03 00:23:22;;;;;;;9.57;5.88;;;;;;;5.29;50.99;100564.13;5053054;28;20047;-65
2020/12/03 00:25:51;;;;;;;10.70;6.00;;;;;;;5.29;50.89;100564.13;5036484;28;20437;-65
2020/12/03 00:28:19;;;;;;;11.40;6.22;;;;;;;5.28;51.02;100559.69;5051412;28;20400;-65
2020/12/03 00:30:47;;;;;;;12.30;6.35;;;;;;;5.28;50.93;100556.97;5048400;28;20069;-65
2020/12/03 00:33:18;;;;;;;9.40;5.78;;;;;;;5.29;50.96;100552.41;5052924;28;20045;-65
2020/12/03 00:35:46;;;;;;;10.45;5.70;;;;;;;5.27;51.12;100541.66;5051738;28;20045;-65
2020/12/03 00:38:14;;;;;;;9.88;5.90;;;;;;;5.28;51.23;100542.53;5051492;28;20454;-65
2020/12/03 00:41:01;;;;;;;11.20;6.18;;;;;;;5.27;51.10;100527.25;5049396;28;20052;-66
2020/12/03 00:43:28;;;;;;;10.50;5.63;;;;;;;5.28;51.04;100529.84;5052130;28;20075;-66
2020/12/03 00:45:56;;;;;;;9.95;6.32;;;;;;;5.28;51.21;100529.84;5049067;28;20501;-66
2020/12/03 00:48:23;;;;;;;9.18;5.65;;;;;;;5.28;51.22;100524.44;5048781;28;20036;-66
2020/12/03 00:50:52;;;;;;;13.00;5.95;;;;;;;5.28;51.00;100515.41;5033902;28;20314;-66
2020/12/03 00:53:20;;;;;;;10.38;6.50;;;;;;;5.27;51.23;100508.25;5052509;28;20044;-66
2020/12/03 00:55:49;;;;;;;9.77;5.93;;;;;;;5.26;50.96;100510.13;5050998;28;20045;-66
2020/12/03 00:58:19;;;;;;;11.02;6.43;;;;;;;5.26;51.07;100507.41;5038946;28;20563;-66
2020/12/03 01:00:46;;;;;;;11.25;6.93;;;;;;;5.26;51.13;100496.56;5041146;28;20115;-66
2020/12/03 01:03:14;;;;;;;11.40;5.35;;;;;;;5.28;51.10;100494.59;5052348;28;20057;-66
2020/12/03 01:05:42;;;;;;;12.02;6.38;;;;;;;5.26;50.95;100488.44;5052530;28;20316;-65
2020/12/03 01:08:10;;;;;;;11.13;6.72;;;;;;;5.26;50.88;100485.72;5052598;28;20044;-65
2020/12/03 01:10:38;;;;;;;10.25;6.35;;;;;;;5.24;51.10;100479.53;5020300;28;20052;-66
2020/12/03 01:13:06;;;;;;;11.65;6.85;;;;;;;5.26;51.09;100485.72;5042736;28;20216;-65
2020/12/03 01:15:53;;;;;;;10.13;5.50;;;;;;;5.23;51.06;100480.50;5051638;28;20045;-66
2020/12/03 01:18:21;;;;;;;10.18;6.00;;;;;;;5.24;51.08;100479.53;5042709;28;20506;-66
2020/12/03 01:20:49;;;;;;;9.57;5.32;;;;;;;5.25;50.73;100475.84;5040507;28;20041;-66
2020/12/03 01:23:16;;;;;;;10.82;6.55;;;;;;;5.25;51.05;100470.44;5044613;28;20110;-66
2020/12/03 01:25:44;;;;;;;10.48;6.38;;;;;;;5.25;51.14;100464.13;5051566;28;20043;-68
2020/12/03 01:28:11;;;;;;;10.57;6.18;;;;;;;5.24;51.02;100455.13;5038025;28;20575;-66
2020/12/03 01:30:39;;;;;;;11.27;5.68;;;;;;;5.26;51.25;100453.19;5042119;28;20268;-66
2020/12/03 01:33:07;;;;;;;9.45;5.97;;;;;;;5.24;51.05;100444.28;5042378;28;20527;-66
2020/12/03 01:35:36;;;;;;;10.40;5.95;;;;;;;5.27;51.16;100445.88;5025049;28;20107;-66
2020/12/03 01:38:05;;;;;;;10.32;5.57;;;;;;;5.27;51.15;100446.75;5033242;28;20138;-66
2020/12/03 01:40:34;;;;;;;11.35;6.35;;;;;;;5.27;51.13;100448.59;5048585;28;20064;-66
2020/12/03 01:43:01;;;;;;;12.88;7.07;;;;;;;5.26;51.12;100439.63;5051986;28;20049;-65
2020/12/03 01:45:51;;;;;;;12.48;6.85;;;;;;;5.28;51.17;100436.78;5050066;28;20037;-66
2020/12/03 01:48:33;;;;;;;9.98;5.63;;;;;;;5.27;51.45;100429.63;5052693;28;20041;-65
2020/12/03 01:51:10;;;;;;;10.45;6.10;;;;;;;5.27;51.10;100433.19;5051941;28;20044;-66
2020/12/03 01:53:59;;;;;;;9.57;5.32;;;;;;;5.27;51.15;100441.31;5023097;28;20091;-65
2020/12/03 01:57:01;;;;;;;11.15;5.50;;;;;;;5.29;51.22;100436.66;5053925;28;20059;-66
2020/12/03 01:59:55;;;;;;;8.70;5.25;;;;;;;5.27;51.32;100435.03;5046483;28;20499;-65
2020/12/03 02:02:36;;;;;;;9.65;5.80;;;;;;;5.27;51.38;100432.31;5058856;28;20033;-66
2020/12/03 02:05:27;;;;;;;10.27;5.68;;;;;;;5.28;51.40;100418.66;5052509;28;20053;-67
2020/12/03 02:08:15;;;;;;;11.15;5.80;;;;;;;5.30;51.25;100415.84;5050187;28;20380;-67
2020/12/03 02:11:02;;;;;;;10.45;6.03;;;;;;;5.28;51.15;100407.81;5036694;28;20421;-67
2020/12/03 02:13:51;;;;;;;10.85;6.25;;;;;;;5.29;51.13;100409.56;5046312;28;20397;-67
2020/12/03 02:16:41;;;;;;;10.73;6.25;;;;;;;5.30;51.23;100403.16;5050525;28;20491;-67
2020/12/03 02:19:31;;;;;;;11.60;6.40;;;;;;;5.30;51.16;100396.84;5050192;28;20045;-67
2020/12/03 02:22:19;;;;;;;8.98;5.57;;;;;;;5.29;51.15;100393.28;5046115;28;20053;-68
2020/12/03 02:25:08;;;;;;;8.80;5.43;;;;;;;5.29;51.21;100374.28;5045878;28;20137;-67
2020/12/03 02:27:55;;;;;;;9.02;5.25;;;;;;;5.27;51.13;100370.81;5049946;28;20431;-67
2020/12/03 02:30:42;;;;;;;11.10;5.80;;;;;;;5.27;51.23;100364.53;5050207;28;20040;-66
2020/12/03 02:33:30;;;;;;;8.18;5.10;;;;;;;5.26;51.27;100370.97;5042069;28;20075;-66
2020/12/03 02:36:17;;;;;;;10.63;5.38;;;;;;;5.26;51.21;100369.13;5047737;28;20061;-66
2020/12/03 02:39:05;;;;;;;9.68;5.75;;;;;;;5.28;51.34;100359.00;5042802;28;20083;-66
2020/12/03 02:41:54;;;;;;;9.55;5.80;;;;;;;5.29;50.99;100354.44;5050741;28;20053;-66
2020/12/03 02:44:43;;;;;;;10.02;5.47;;;;;;;5.27;51.18;100346.41;5050193;28;20049;-66
2020/12/03 02:47:30;;;;;;;9.38;5.22;;;;;;;5.25;51.19;100345.69;5049782;28;20630;-66
2020/12/03 02:50:17;;;;;;;10.85;5.55;;;;;;;5.24;51.33;100341.22;5044582;28;20102;-66
2020/12/03 02:53:04;;;;;;;11.63;6.55;;;;;;;5.25;51.20;100339.38;5041400;28;20053;-66
2020/12/03 02:55:52;;;;;;;10.00;5.80;;;;;;;5.24;51.27;100327.69;5041501;28;20057;-64
2020/12/03 02:58:40;;;;;;;9.73;5.50;;;;;;;5.25;51.20;100324.00;5050601;28;20060;-65
2020/12/03 03:01:27;;;;;;;10.07;5.63;;;;;;;5.22;51.13;100322.34;5043840;28;20052;-65
2020/12/03 03:04:14;;;;;;;8.88;5.20;;;;;;;5.22;51.25;100321.50;5055442;28;20053;-66
2020/12/03 03:06:43;;;;;;;10.70;6.45;;;;;;;5.23;51.28;100317.81;5032482;28;20239;-65
2020/12/03 03:09:16;;;;;;;9.45;6.13;;;;;;;5.23;51.35;100320.50;5039522;28;20048;-65
2020/12/03 03:11:47;;;;;;;9.27;5.22;;;;;;;5.25;51.18;100306.84;5033169;28;20049;-65
2020/12/03 03:14:14;;;;;;;11.35;5.95;;;;;;;5.23;51.33;100305.13;5049919;28;20056;-65
2020/12/03 03:16:41;;;;;;;8.65;5.00;;;;;;;5.25;51.63;100301.44;5050269;28;20057;-66
2020/12/03 03:19:13;;;;;;;9.23;4.80;;;;;;;5.25;51.36;100296.88;5049027;28;20045;-65
2020/12/03 03:21:40;;;;;;;8.50;5.35;;;;;;;5.27;51.41;100302.16;5050956;28;20049;-65
2020/12/03 03:24:07;;;;;;;10.13;5.60;;;;;;;5.27;51.26;100294.03;5040415;28;20531;-65
2020/12/03 03:26:36;;;;;;;9.13;5.28;;;;;;;5.28;51.48;100291.19;5049917;28;20036;-65
2020/12/03 03:29:05;;;;;;;8.25;4.60;;;;;;;5.29;51.28;100287.50;5040887;28;20519;-65
2020/12/03 03:31:33;;;;;;;11.43;5.72;;;;;;;5.30;51.44;100286.53;5051107;28;20073;-66
2020/12/03 03:34:00;;;;;;;8.60;5.18;;;;;;;5.31;51.41;100280.16;5049526;28;20500;-66
2020/12/03 03:36:28;;;;;;;9.77;5.50;;;;;;;5.32;51.48;100281.00;5034378;28;20074;-66
2020/12/03 03:38:56;;;;;;;9.60;5.60;;;;;;;5.33;51.41;100274.63;5049795;28;20041;-66
2020/12/03 03:41:24;;;;;;;9.90;5.90;;;;;;;5.33;51.43;100271.91;5048729;28;20115;-66
2020/12/03 03:43:53;;;;;;;9.35;5.35;;;;;;;5.34;51.42;100273.63;5050302;28;20385;-66
2020/12/03 03:46:21;;;;;;;10.85;5.82;;;;;;;5.35;51.42;100269.91;5049716;28;20045;-66
2020/12/03 03:48:48;;;;;;;12.07;5.60;;;;;;;5.34;51.43;100263.66;5053161;28;20049;-66
2020/12/03 03:51:16;;;;;;;9.98;5.70;;;;;;;5.34;51.54;100262.78;5034694;28;20446;-66
2020/12/03 03:53:43;;;;;;;9.70;5.60;;;;;;;5.34;51.54;100260.94;5050327;28;20045;-66
2020/12/03 03:56:11;;;;;;;9.95;5.93;;;;;;;5.33;51.20;100253.78;5036062;28;20565;-66
2020/12/03 03:58:39;;;;;;;10.70;6.30;;;;;;;5.33;51.20;100251.06;5053836;28;20045;-66
2020/12/03 04:01:08;;;;;;;8.52;5.30;;;;;;;5.34;51.08;100243.81;5053318;28;20052;-66
2020/12/03 04:03:36;;;;;;;9.80;5.60;;;;;;;5.34;51.25;100235.66;5054679;28;20041;-66
2020/12/03 04:06:05;;;;;;;10.00;5.55;;;;;;;5.33;51.33;100233.94;5042336;28;20059;-65
2020/12/03 04:08:32;;;;;;;9.45;5.55;;;;;;;5.33;51.49;100231.22;5053387;28;20106;-66
2020/12/03 04:10:59;;;;;;;10.43;5.88;;;;;;;5.33;51.48;100231.22;5050734;28;20048;-65
2020/12/03 04:13:27;;;;;;;8.80;5.10;;;;;;;5.33;51.40;100215.81;5036555;28;20106;-66
2020/12/03 04:15:55;;;;;;;11.50;5.93;;;;;;;5.33;51.22;100206.81;5053242;28;20049;-66
2020/12/03 04:18:26;;;;;;;10.02;5.40;;;;;;;5.33;51.37;100207.69;5053401;28;20033;-65
2020/12/03 04:20:56;;;;;;;9.70;5.32;;;;;;;5.33;51.38;100207.69;5040061;28;20132;-65
2020/12/03 04:23:23;;;;;;;9.15;5.55;;;;;;;5.33;51.37;100212.25;5053149;28;20438;-65
2020/12/03 04:25:51;;;;;;;8.75;5.30;;;;;;;5.33;51.36;100199.53;5053281;28;20051;-66
2020/12/03 04:28:20;;;;;;;9.32;5.05;;;;;;;5.34;51.48;100206.69;5044020;28;20132;-66
2020/12/03 04:30:47;;;;;;;8.77;4.90;;;;;;;5.34;51.53;100204.00;5052348;28;20047;-66
2020/12/03 04:33:17;;;;;;;9.15;5.45;;;;;;;5.35;51.63;100200.28;5040478;28;20319;-66
2020/12/03 04:35:45;;;;;;;8.07;4.75;;;;;;;5.35;51.36;100192.13;5053122;28;20098;-66
2020/12/03 04:38:14;;;;;;;10.75;5.28;;;;;;;5.38;51.39;100191.03;5053390;28;20065;-66
2020/12/03 04:40:44;;;;;;;9.07;5.10;;;;;;;5.38;51.33;100191.91;5039196;28;20048;-66
2020/12/03 04:43:24;;;;;;;9.15;5.40;;;;;;;5.40;51.39;100179.09;5050181;28;20041;-66
2020/12/03 04:46:00;;;;;;;8.90;5.25;;;;;;;5.40;51.44;100180.97;5039142;28;20455;-66
2020/12/03 04:49:07;;;;;;;9.95;5.10;;;;;;;5.35;51.41;100177.72;5053625;28;20044;-66
2020/12/03 04:51:57;;;;;;;9.18;4.57;;;;;;;5.38;51.37;100172.94;4966969;28;20082;-66
2020/12/03 04:54:31;;;;;;;7.25;4.60;;;;;;;5.40;51.17;100170.09;5051722;28;20045;-66
2020/12/03 04:57:13;;;;;;;9.60;5.28;;;;;;;5.42;51.20;100174.44;5052384;28;20041;-66
2020/12/03 04:59:51;;;;;;;8.98;4.55;;;;;;;5.42;51.48;100170.88;5049214;28;20066;-65
2020/12/03 05:02:45;;;;;;;8.18;4.53;;;;;;;5.41;51.36;100172.72;5052117;28;20055;-65
2020/12/03 05:05:24;;;;;;;9.25;4.80;;;;;;;5.42;51.37;100171.72;5046126;28;20122;-66
2020/12/03 05:08:00;;;;;;;8.30;4.95;;;;;;;5.42;51.22;100179.88;5037127;28;20049;-65
2020/12/03 05:10:39;;;;;;;9.10;4.72;;;;;;;5.44;51.41;100174.31;5051910;28;20049;-66
2020/12/03 05:13:17;;;;;;;8.80;4.95;;;;;;;5.43;51.28;100172.59;5050825;28;20044;-66
2020/12/03 05:15:49;;;;;;;8.02;4.70;;;;;;;5.42;51.35;100170.88;5052262;28;20128;-66
2020/12/03 05:18:45;;;;;;;8.77;5.45;;;;;;;5.39;51.13;100158.38;5046035;28;20130;-66
2020/12/03 05:21:16;;;;;;;7.80;4.57;;;;;;;5.40;51.21;100159.25;5049625;28;20088;-66
2020/12/03 05:23:44;;;;;;;7.50;4.22;;;;;;;5.39;51.32;100161.09;5052956;28;20044;-66
2020/12/03 05:26:16;;;;;;;8.55;4.65;;;;;;;5.42;51.27;100154.59;5033045;28;20063;-66
2020/12/03 05:28:50;;;;;;;9.13;4.95;;;;;;;5.40;51.13;100157.41;5045667;28;20574;-66
2020/12/03 05:31:25;;;;;;;9.55;5.28;;;;;;;5.40;51.16;100149.28;5058348;28;20709;-66
2020/12/03 05:33:58;;;;;;;8.50;4.90;;;;;;;5.39;51.38;100143.97;5052856;28;20132;-66
2020/12/03 05:36:31;;;;;;;10.07;5.57;;;;;;;5.41;51.17;100136.59;5037988;28;20519;-66
2020/12/03 05:39:01;;;;;;;9.02;5.15;;;;;;;5.38;51.26;100128.66;5050825;28;20118;-66
2020/12/03 05:41:39;;;;;;;9.13;5.13;;;;;;;5.41;51.14;100123.88;5051577;28;20052;-66
2020/12/03 05:44:20;;;;;;;8.85;4.88;;;;;;;5.40;50.96;100126.72;5052264;28;20041;-66
2020/12/03 05:46:56;;;;;;;8.00;4.88;;;;;;;5.37;51.18;100116.09;5049721;28;20171;-66
2020/12/03 05:49:28;;;;;;;8.43;4.63;;;;;;;5.37;51.27;100116.09;5052013;28;20131;-66
2020/12/03 05:52:07;;;;;;;9.90;5.60;;;;;;;5.38;51.10;100115.97;5043227;28;20037;-65
2020/12/03 05:54:34;;;;;;;10.52;5.70;;;;;;;5.34;51.00;100109.06;5051895;28;20048;-65
2020/12/03 05:57:21;;;;;;;10.80;5.57;;;;;;;5.36;51.01;100090.81;5052491;28;20496;-65
2020/12/03 05:59:50;;;;;;;8.13;4.60;;;;;;;5.32;51.24;100091.19;5048452;28;20094;-65
2020/12/03 06:02:33;;;;;;;8.40;4.82;;;;;;;5.35;51.05;100085.50;5051058;28;20040;-65
2020/12/03 06:05:16;;;;;;;8.55;5.30;;;;;;;5.33;51.12;100080.22;5050802;28;20094;-65
2020/12/03 06:08:01;;;;;;;8.27;4.47;;;;;;;5.31;50.86;100079.47;5051939;28;20037;-65
2020/12/03 06:11:06;;;;;;;8.38;5.03;;;;;;;5.28;50.95;100079.69;5049504;28;20033;-65
2020/12/03 06:13:49;;;;;;;9.10;4.70;;;;;;;5.28;51.22;100079.69;5047477;28;20551;-65
2020/12/03 06:16:31;;;;;;;9.75;4.80;;;;;;;5.26;51.33;100072.69;5048039;28;20518;-64
2020/12/03 06:19:25;;;;;;;8.90;5.15;;;;;;;5.23;51.15;100063.78;5047811;28;20127;-65
2020/12/03 06:22:12;;;;;;;8.70;4.70;;;;;;;5.25;51.04;100069.09;5048578;28;20522;-65
2020/12/03 06:25:04;;;;;;;7.88;4.35;;;;;;;5.22;51.09;100064.75;5047419;28;21272;-65
2020/12/03 06:27:54;;;;;;;8.80;4.78;;;;;;;5.21;51.19;100056.75;5045301;28;21296;-65
2020/12/03 06:30:29;;;;;;;7.80;4.90;;;;;;;5.20;51.25;100049.59;5026140;28;20480;-65
2020/12/03 06:33:17;;;;;;;8.00;4.40;;;;;;;5.22;51.22;100039.50;5047522;28;20056;-66
2020/12/03 06:35:53;;;;;;;9.32;5.00;;;;;;;5.21;51.42;100032.34;5041710;28;20033;-66
2020/12/03 06:38:30;;;;;;;7.40;4.30;;;;;;;5.22;51.14;100021.38;5049566;28;20094;-66
2020/12/03 06:41:14;;;;;;;9.13;5.00;;;;;;;5.19;51.24;100008.06;5053618;28;20040;-65
2020/12/03 06:43:47;;;;;;;6.97;4.03;;;;;;;5.20;51.10;99995.34;5057164;28;20048;-65
2020/12/03 06:46:48;;;;;;;9.98;5.72;;;;;;;5.19;50.94;100001.75;5044979;28;20049;-65
2020/12/03 06:49:45;;;;;;;8.88;4.88;;;;;;;5.16;51.54;100000.16;5026490;28;20080;-65
2020/12/03 06:52:40;;;;;;;8.27;4.43;;;;;;;5.16;51.10;100004.72;5040120;28;20533;-65
2020/12/03 06:55:23;;;;;;;9.65;5.53;;;;;;;5.15;50.98;99987.59;5051524;28;20095;-65
2020/12/03 06:58:11;;;;;;;;;;;;;;;4.91;51.48;99996.75;5051107;28;20373;-65
2020/12/03 07:01:02;;;;;;;9.85;4.90;;;;;;;5.12;51.41;99995.97;5044471;28;19929;-65
2020/12/03 07:04:26;;;;;;;8.52;5.18;;;;;;;5.09;51.65;99998.06;5046172;28;20043;-65
2020/12/03 07:07:17;;;;;;;8.63;4.53;;;;;;;5.11;51.36;99998.78;5053342;28;20037;-66
2020/12/03 07:10:25;;;;;;;8.87;4.77;;;;;;;5.11;51.30;99996.94;5051088;28;20328;-65
2020/12/03 07:13:31;;;;;;;8.38;4.40;;;;;;;5.12;51.23;99997.81;5050507;28;20296;-65
2020/12/03 07:16:15;;;;;;;9.18;4.28;;;;;;;5.11;52.25;100010.50;5026944;28;20072;-67
2020/12/03 07:19:24;;;;;;;8.50;4.75;;;;;;;5.13;51.80;100002.25;5044488;28;20043;-69
2020/12/03 07:22:04;;;;;;;8.30;4.20;;;;;;;5.14;51.85;99994.00;5044977;28;20037;-68
2020/12/03 07:24:34;;;;;;;8.10;4.80;;;;;;;5.16;51.79;99991.19;5048529;28;20492;-69
2020/12/03 07:27:33;;;;;;;9.98;5.38;;;;;;;5.22;52.01;99996.13;5013942;28;20051;-68
2020/12/03 07:30:05;;;;;;;9.13;4.82;;;;;;;5.26;52.35;99991.31;5049807;28;20051;-66
2020/12/03 07:32:54;;;;;;;9.35;4.88;;;;;;;5.30;51.79;99990.09;5051028;28;20130;-66
2020/12/03 07:35:31;;;;;;;8.63;4.47;;;;;;;5.35;51.90;99999.59;5049304;28;20566;-66
2020/12/03 07:38:10;;;;;;;9.30;5.35;;;;;;;5.39;51.24;99994.78;5054979;28;20119;-67
2020/12/03 07:40:39;;;;;;;10.35;5.13;;;;;;;5.39;51.66;99983.94;5046266;28;20045;-66
2020/12/03 07:43:18;;;;;;;10.07;5.05;;;;;;;5.45;51.12;99972.59;5048901;28;20047;-67
2020/12/03 07:45:49;;;;;;;8.43;4.97;;;;;;;5.45;51.33;99972.59;5036438;28;20492;-67
2020/12/03 07:48:21;;;;;;;9.50;5.70;;;;;;;5.45;51.05;99965.34;5058729;28;20037;-66
2020/12/03 07:51:09;;;;;;;8.63;4.70;;;;;;;5.44;50.87;99963.59;5053342;28;20041;-67
2020/12/03 07:53:38;;;;;;;9.07;4.82;;;;;;;5.45;51.14;99969.88;5050324;28;20106;-66
2020/12/03 07:56:38;;;;;;;8.52;5.15;;;;;;;5.41;50.97;99971.13;5054685;28;20045;-66
2020/12/03 07:59:29;;;;;;;9.88;5.20;;;;;;;5.43;50.52;99966.47;4953202;28;20538;-67
2020/12/03 08:01:59;;;;;;;9.85;4.95;;;;;;;5.41;50.86;99961.16;5042307;28;20045;-66
2020/12/03 08:04:31;;;;;;;8.48;4.82;;;;;;;5.42;51.00;99962.88;5053975;28;20041;-66
2020/12/03 08:07:37;;;;;;;8.65;5.07;;;;;;;5.41;50.72;99963.00;5050451;28;20044;-66
2020/12/03 08:10:34;;;;;;;8.25;4.78;;;;;;;5.40;51.14;99961.28;5046110;28;20144;-67
2020/12/03 08:13:15;;;;;;;9.50;4.82;;;;;;;5.41;51.08;99963.88;5045282;28;20029;-67
2020/12/03 08:15:43;;;;;;;9.05;4.90;;;;;;;5.39;51.01;99952.25;5051692;28;20037;-67
2020/12/03 08:18:41;;;;;;;8.60;4.95;;;;;;;5.42;50.72;99945.75;5038342;28;20099;-68
2020/12/03 08:21:13;;;;;;;8.02;4.75;;;;;;;5.39;51.15;99946.84;5028079;28;20061;-67
2020/12/03 08:23:50;;;;;;;9.77;4.82;;;;;;;5.40;50.75;99937.72;5052620;28;20069;-67
2020/12/03 08:26:27;;;;;;;8.15;4.70;;;;;;;5.39;50.73;99929.72;5059497;28;20041;-66
2020/12/03 08:28:54;;;;;;;9.35;4.88;;;;;;;5.34;50.81;99927.38;5046994;28;21364;-67
2020/12/03 08:31:22;;;;;;;10.27;4.78;;;;;;;5.35;50.81;99922.78;5038064;28;20037;-67
2020/12/03 08:33:53;;;;;;;9.20;4.85;;;;;;;5.35;50.88;99926.34;5054165;28;20037;-67
2020/12/03 08:36:42;;;;;;;8.27;4.78;;;;;;;5.33;50.90;99914.78;5052198;28;20049;-67
2020/12/03 08:39:10;;;;;;;7.70;4.50;;;;;;;5.32;51.01;99906.78;5053444;28;20129;-67
2020/12/03 08:41:41;;;;;;;9.57;5.53;;;;;;;5.31;50.88;99915.91;5047467;28;20064;-68
2020/12/03 08:44:28;;;;;;;9.85;5.00;;;;;;;5.30;50.72;99904.19;5043359;28;20049;-66
2020/12/03 08:47:06;;;;;;;9.85;4.80;;;;;;;5.31;50.96;99902.34;5038191;28;20040;-67
2020/12/03 08:49:41;;;;;;;8.82;5.10;;;;;;;5.31;50.69;99896.91;5046525;28;20049;-67
2020/12/03 08:52:09;;;;;;;9.15;4.68;;;;;;;5.28;50.96;99898.00;5049939;28;20051;-67
2020/12/03 08:54:41;;;;;;;8.80;4.95;;;;;;;5.28;51.00;99892.59;5053769;28;20061;-67
2020/12/03 08:57:13;;;;;;;8.88;4.95;;;;;;;5.30;50.61;99895.19;5051708;28;20041;-67
2020/12/03 08:59:46;;;;;;;9.05;4.70;;;;;;;5.28;50.88;99881.75;5037638;28;20099;-68
2020/12/03 09:02:18;;;;;;;9.82;5.00;;;;;;;5.29;50.91;99885.31;5047558;28;20047;-66
2020/12/03 09:04:52;;;;;;;8.43;4.97;;;;;;;5.29;50.80;99872.63;5053343;28;20040;-66
2020/12/03 09:07:24;;;;;;;9.10;5.07;;;;;;;5.29;50.88;99869.03;5065182;28;20512;-67
2020/12/03 09:09:52;;;;;;;8.48;4.93;;;;;;;5.30;50.87;99870.78;5053719;28;20049;-68
2020/12/03 09:12:24;;;;;;;8.98;4.70;;;;;;;5.30;50.99;99860.78;5051054;28;20071;-68
2020/12/03 09:14:56;;;;;;;8.02;4.57;;;;;;;5.29;50.96;99855.50;5034214;28;20041;-68
2020/12/03 09:17:26;;;;;;;8.77;4.78;;;;;;;5.31;51.00;99867.09;5053274;28;20068;-68
2020/12/03 09:19:55;;;;;;;8.52;5.15;;;;;;;5.30;50.86;99849.94;5051495;28;20056;-67
2020/12/03 09:22:24;;;;;;;8.05;4.40;;;;;;;5.31;50.77;99848.97;5046039;28;20045;-67
2020/12/03 09:24:52;;;;;;;7.80;4.18;;;;;;;5.31;50.84;99840.81;5049259;28;20056;-66
2020/12/03 09:27:21;;;;;;;7.97;4.50;;;;;;;5.31;50.83;99839.97;5040435;28;20124;-66
2020/12/03 09:29:50;;;;;;;7.57;4.32;;;;;;;5.30;50.79;99839.09;5050029;28;20071;-66
2020/12/03 09:32:24;;;;;;;7.78;4.63;;;;;;;5.30;50.80;99839.09;5052575;28;20059;-66
2020/12/03 09:34:57;;;;;;;8.63;4.55;;;;;;;5.32;50.50;99830.84;5047685;28;20509;-66
2020/12/03 09:37:29;;;;;;;8.18;4.97;;;;;;;5.30;50.56;99828.25;5052219;28;20044;-65
2020/12/03 09:39:57;;;;;;;7.80;4.43;;;;;;;5.30;50.77;99824.69;5036694;28;20120;-67
2020/12/03 09:42:25;;;;;;;8.23;4.20;;;;;;;5.29;50.91;99810.25;5047215;28;20068;-67
2020/12/03 09:44:57;;;;;;;8.07;4.60;;;;;;;5.28;50.66;99811.25;5052144;28;20091;-66
2020/12/03 09:47:29;;;;;;;8.23;4.60;;;;;;;5.27;50.59;99795.94;5055417;28;20385;-66
2020/12/03 09:50:00;;;;;;;7.05;4.18;;;;;;;5.28;50.66;99792.25;5039475;28;20297;-66
2020/12/03 09:52:35;;;;;;;7.82;4.22;;;;;;;5.30;50.75;99787.59;5039200;28;20049;-67
2020/12/03 09:55:15;;;;;;;7.93;4.35;;;;;;;5.27;50.88;99784.25;5033413;28;20136;-67
2020/12/03 09:57:52;;;;;;;8.48;4.97;;;;;;;5.32;50.72;99769.34;5052489;28;20040;-67
2020/12/03 10:00:26;;;;;;;7.65;4.13;;;;;;;5.31;50.75;99772.19;5049979;28;20053;-67
2020/12/03 10:03:23;;;;;;;8.25;4.72;;;;;;;5.32;50.60;99763.91;5049937;28;20084;-66
2020/12/03 10:06:04;;;;;;;8.15;4.57;;;;;;;5.31;50.45;99770.31;5048886;28;20083;-66
2020/12/03 10:09:36;;;;;;;8.30;4.25;;;;;;;5.31;50.58;99762.19;5037902;28;20124;-67
2020/12/03 10:12:36;;;;;;;8.82;5.10;;;;;;;5.31;50.55;99758.63;5050740;28;20040;-67
2020/12/03 10:15:34;;;;;;;8.98;4.75;;;;;;;5.31;50.95;99756.78;5003963;28;20050;-67
2020/12/03 10:18:08;;;;;;;9.60;4.68;;;;;;;5.32;50.88;99753.06;5053030;28;20085;-67
2020/12/03 10:20:38;;;;;;;8.13;4.57;;;;;;;5.33;50.92;99746.66;5047319;28;20069;-67
2020/12/03 10:23:35;;;;;;;7.43;4.45;;;;;;;5.38;50.91;99736.28;5052609;28;20503;-66
2020/12/03 10:26:24;;;;;;;9.00;4.53;;;;;;;5.39;50.85;99746.16;5043411;28;20037;-67
2020/12/03 10:29:14;;;;;;;9.80;5.40;;;;;;;5.39;50.72;99740.72;5051058;28;20071;-67
2020/12/03 10:31:48;;;;;;;6.70;4.13;;;;;;;5.40;51.18;99728.03;5018015;28;20041;-70
2020/12/03 10:34:18;;;;;;;9.40;5.03;;;;;;;5.43;50.85;99725.06;5051098;28;20049;-67
2020/12/03 10:36:52;;;;;;;8.15;4.65;;;;;;;5.45;51.05;99715.81;5051805;28;20036;-68
2020/12/03 10:39:26;;;;;;;8.38;4.60;;;;;;;5.46;50.93;99711.25;5033042;28;20393;-68
2020/12/03 10:41:56;;;;;;;8.93;5.18;;;;;;;5.47;50.75;99694.88;5032120;28;20416;-67
2020/12/03 10:44:26;;;;;;;9.05;4.80;;;;;;;5.49;50.72;99675.78;5039915;28;20572;-67
2020/12/03 10:47:06;;;;;;;9.68;4.75;;;;;;;5.50;51.04;99675.66;5025396;28;20065;-67
2020/12/03 10:49:37;;;;;;;9.27;5.15;;;;;;;5.51;51.05;99669.22;5046701;28;20056;-67
2020/12/03 10:52:10;;;;;;;;;;;;;;;5.27;51.34;99659.53;5051753;28;20284;-67
2020/12/03 10:55:02;;;;;;;8.57;4.70;;;;;;;5.49;50.94;99649.50;5046331;28;19920;-67
2020/12/03 10:57:58;;;;;;;7.65;4.75;;;;;;;5.51;50.69;99650.22;5051885;28;20488;-67
2020/12/03 11:00:34;;;;;;;7.53;4.75;;;;;;;5.52;50.72;99642.94;5049828;28;20156;-67
2020/12/03 11:03:28;;;;;;;8.18;4.38;;;;;;;5.55;50.80;99642.69;5049963;28;20072;-67
2020/12/03 11:06:21;;;;;;;8.95;4.63;;;;;;;5.51;50.96;99631.22;5050583;28;20049;-68
2020/12/03 11:09:16;;;;;;;7.40;4.28;;;;;;;5.55;50.94;99630.00;5050966;28;20049;-66
2020/12/03 11:12:10;;;;;;;8.23;4.53;;;;;;;5.57;50.97;99630.72;5044557;28;20059;-67
2020/12/03 11:14:39;;;;;;;7.85;4.50;;;;;;;5.58;50.92;99615.31;5041975;28;20045;-67
2020/12/03 11:17:33;;;;;;;8.23;4.90;;;;;;;5.61;50.87;99617.75;5026618;28;20037;-66
2020/12/03 11:20:21;;;;;;;8.15;4.70;;;;;;;5.58;50.81;99609.91;5048389;28;20061;-67
2020/12/03 11:23:03;;;;;;;9.18;4.60;;;;;;;5.61;50.80;99601.47;5046152;28;20033;-67
2020/12/03 11:25:33;;;;;;;8.90;4.72;;;;;;;5.60;50.88;99597.91;5046433;28;20044;-67
2020/12/03 11:28:28;;;;;;;8.30;4.47;;;;;;;5.59;50.87;99581.78;5049507;28;20041;-67
2020/12/03 11:31:03;;;;;;;7.88;4.88;;;;;;;5.59;50.93;99582.63;5033518;28;20519;-68
2020/12/03 11:33:32;;;;;;;9.55;4.68;;;;;;;5.64;50.85;99565.94;5029772;28;20034;-67
2020/12/03 11:36:19;;;;;;;8.65;4.57;;;;;;;5.64;50.98;99565.94;5055243;28;20064;-67
2020/12/03 11:39:07;;;;;;;8.75;4.50;;;;;;;5.60;50.91;99559.91;5037595;28;20073;-66
2020/12/03 11:42:27;;;;;;;8.60;4.22;;;;;;;5.65;51.04;99554.13;5050527;28;20522;-67
2020/12/03 11:45:45;;;;;;;7.80;4.40;;;;;;;5.60;51.02;99540.94;5051245;28;20504;-67
2020/12/03 11:48:36;;;;;;;7.85;4.30;;;;;;;5.62;51.15;99529.09;5039680;28;20067;-67
2020/12/03 11:51:28;;;;;;;7.88;4.30;;;;;;;5.67;50.87;99526.84;5036217;28;20124;-66
2020/12/03 11:54:15;;;;;;;6.90;4.05;;;;;;;5.63;50.99;99528.09;5038050;28;20420;-65
2020/12/03 11:57:02;;;;;;;8.52;4.45;;;;;;;5.64;50.94;99517.13;5046770;28;20072;-67
2020/12/03 11:59:50;;;;;;;8.10;4.32;;;;;;;5.65;51.13;99504.41;5047627;28;20106;-67
2020/12/03 12:02:38;;;;;;;9.50;4.78;;;;;;;5.67;51.00;99497.88;5043304;28;20463;-66
2020/12/03 12:05:33;;;;;;;7.65;4.50;;;;;;;5.68;50.97;99498.75;5050608;28;20053;-66
2020/12/03 12:08:29;;;;;;;7.43;4.50;;;;;;;5.67;51.07;99492.44;5050555;28;20099;-67
2020/12/03 12:11:20;;;;;;;6.90;4.05;;;;;;;5.70;50.95;99491.31;5042340;28;20166;-66
2020/12/03 12:14:07;;;;;;;6.80;3.90;;;;;;;5.73;51.08;99494.63;5043737;28;20412;-66
2020/12/03 12:16:55;;;;;;;7.47;4.05;;;;;;;5.75;51.21;99478.22;5044049;28;20057;-66
2020/12/03 12:19:44;;;;;;;7.70;4.03;;;;;;;5.78;51.17;99472.50;5048732;28;20099;-66
2020/12/03 12:22:32;;;;;;;8.40;4.20;;;;;;;5.79;51.20;99464.22;5051626;28;20049;-66
2020/12/03 12:25:19;;;;;;;7.75;4.10;;;;;;;5.80;51.15;99449.66;5048399;28;20049;-66
2020/12/03 12:28:07;;;;;;;7.97;4.38;;;;;;;5.84;51.11;99442.13;5044570;28;20053;-66
2020/12/03 12:30:54;;;;;;;8.48;4.40;;;;;;;5.84;51.27;99431.25;5042060;28;20132;-66